createdAt,value
2023-04-19T00:02:06.844Z,13.40
2023-04-19T00:04:34.034Z,13.70
2023-04-19T00:07:01.023Z,14.17
2023-04-19T00:09:27.807Z,13.27
2023-04-19T00:11:54.613Z,13.47
2023-04-19T00:14:21.502Z,13.37
2023-04-19T00:16:48.415Z,14.00
2023-04-19T00:19:15.335Z,12.93
2023-04-19T00:21:42.162Z,11.87
2023-04-19T00:24:09.081Z,14.80
2023-04-19T00:26:35.877Z,14.97
2023-04-19T00:29:02.667Z,13.57
2023-04-19T00:31:29.566Z,13.90
2023-04-19T00:33:57.110Z,14.07
2023-04-19T00:36:23.935Z,14.60
2023-04-19T00:38:50.777Z,14.77
2023-04-19T00:41:17.658Z,14.33
2023-04-19T00:43:44.504Z,15.03
2023-04-19T00:46:11.605Z,13.83
2023-04-19T00:48:38.648Z,15.33
2023-04-19T00:51:05.924Z,14.10
2023-04-19T00:53:32.854Z,14.63
2023-04-19T00:56:04.582Z,15.83
2023-04-19T00:58:32.148Z,15.70
2023-04-19T01:01:00.094Z,14.67
2023-04-19T01:03:29.864Z,15.13
2023-04-19T01:05:57.479Z,15.13
2023-04-19T01:08:24.503Z,14.70
2023-04-19T01:10:51.300Z,14.80
2023-04-19T01:13:18.083Z,16.77
2023-04-19T01:15:44.971Z,15.63
2023-04-19T01:18:11.810Z,16.43
2023-04-19T01:20:38.606Z,15.20
2023-04-19T01:23:05.531Z,16.33
2023-04-19T01:25:32.310Z,15.10
2023-04-19T01:27:59.192Z,14.80
2023-04-19T01:30:26.042Z,16.20
2023-04-19T01:32:52.919Z,16.67
2023-04-19T01:35:19.846Z,15.30
2023-04-19T01:37:47.070Z,16.40
2023-04-19T01:40:14.194Z,16.20
2023-04-19T01:42:41.015Z,16.03
2023-04-19T01:45:08.328Z,15.90
2023-04-19T01:47:35.262Z,16.67
2023-04-19T01:50:02.252Z,15.93
2023-04-19T01:52:29.036Z,16.30
2023-04-19T01:54:55.813Z,16.93
2023-04-19T01:57:22.732Z,16.60
2023-04-19T01:59:50.352Z,18.50
2023-04-19T02:02:17.302Z,16.27
2023-04-19T02:04:44.339Z,16.67
2023-04-19T02:07:11.727Z,16.33
2023-04-19T02:09:38.887Z,16.40
2023-04-19T02:12:06.282Z,15.90
2023-04-19T02:14:33.141Z,16.93
2023-04-19T02:16:59.982Z,15.13
2023-04-19T02:19:26.753Z,15.43
2023-04-19T02:21:57.728Z,15.90
2023-04-19T02:24:25.082Z,14.60
2023-04-19T02:26:52.103Z,16.17
2023-04-19T02:29:19.400Z,15.20
2023-04-19T02:31:46.656Z,15.63
2023-04-19T02:34:13.824Z,14.30
2023-04-19T02:36:40.918Z,14.60
2023-04-19T02:39:07.750Z,15.20
2023-04-19T02:41:34.574Z,15.50
2023-04-19T02:44:01.375Z,15.23
2023-04-19T02:46:28.274Z,15.17
2023-04-19T02:48:55.157Z,15.37
2023-04-19T02:51:21.949Z,16.70
2023-04-19T02:53:48.716Z,15.17
2023-04-19T02:56:16.614Z,15.00
2023-04-19T02:58:43.446Z,15.10
2023-04-19T03:01:10.527Z,15.77
2023-04-19T03:03:37.532Z,14.87
2023-04-19T03:06:04.564Z,14.40
2023-04-19T03:08:31.381Z,15.13
2023-04-19T03:10:58.984Z,13.93
2023-04-19T03:13:25.955Z,12.90
2023-04-19T03:15:52.925Z,13.07
2023-04-19T03:18:19.814Z,14.70
2023-04-19T03:20:46.632Z,15.40
2023-04-19T03:23:13.423Z,13.03
2023-04-19T03:25:40.533Z,13.07
2023-04-19T03:28:07.325Z,13.77
2023-04-19T03:30:34.121Z,14.40
2023-04-19T03:33:01.109Z,13.57
2023-04-19T03:35:29.471Z,12.07
2023-04-19T03:37:56.377Z,11.90
2023-04-19T03:40:23.168Z,12.70
2023-04-19T03:42:49.968Z,11.40
2023-04-19T03:45:16.790Z,12.93
2023-04-19T03:47:43.568Z,13.23
2023-04-19T03:50:10.719Z,13.97
2023-04-19T03:52:37.612Z,11.57
2023-04-19T03:55:04.804Z,11.30
2023-04-19T03:57:31.702Z,11.17
2023-04-19T03:59:58.533Z,11.13
2023-04-19T04:02:25.370Z,11.40
2023-04-19T04:04:55.506Z,9.90
2023-04-19T04:07:23.370Z,9.83
2023-04-19T04:09:50.825Z,11.17
2023-04-19T04:12:17.647Z,10.70
2023-04-19T04:14:44.467Z,10.80
2023-04-19T04:17:11.472Z,11.00
2023-04-19T04:19:38.274Z,11.30
2023-04-19T04:22:06.201Z,11.67
2023-04-19T04:24:42.038Z,11.67
2023-04-19T04:27:12.690Z,12.33
2023-04-19T04:29:40.143Z,12.00
2023-04-19T04:32:10.992Z,12.20
2023-04-19T04:34:40.753Z,12.57
2023-04-19T04:37:08.951Z,11.80
2023-04-19T04:42:10.391Z,12.20
2023-04-19T04:44:37.522Z,11.30
2023-04-19T04:47:04.318Z,12.20
2023-04-19T04:49:31.387Z,10.10
2023-04-19T04:51:58.769Z,11.40
2023-04-19T04:54:25.771Z,10.23
2023-04-19T04:56:52.623Z,10.60
2023-04-19T04:59:19.446Z,10.30
2023-04-19T05:01:46.664Z,10.53
2023-04-19T05:04:13.933Z,10.83
2023-04-19T05:06:41.333Z,11.07
2023-04-19T05:09:08.300Z,10.60
2023-04-19T05:11:35.235Z,11.20
2023-04-19T05:14:02.712Z,10.23
2023-04-19T05:16:30.095Z,11.07
2023-04-19T05:18:56.972Z,9.50
2023-04-19T05:21:23.858Z,8.07
2023-04-19T05:23:53.857Z,9.17
2023-04-19T05:26:20.748Z,8.10
2023-04-19T05:28:47.678Z,7.20
2023-04-19T05:31:14.668Z,9.97
2023-04-19T05:33:41.671Z,7.63
2023-04-19T05:36:08.853Z,7.13
2023-04-19T05:38:35.874Z,7.30
2023-04-19T05:41:04.239Z,6.60
2023-04-19T05:43:31.245Z,7.00
2023-04-19T05:45:58.443Z,7.00
2023-04-19T05:48:25.721Z,6.60
2023-04-19T05:50:57.578Z,6.30
2023-04-19T05:53:24.372Z,5.63
2023-04-19T05:55:52.337Z,5.90
2023-04-19T05:58:19.410Z,4.90
2023-04-19T06:00:46.605Z,5.73
2023-04-19T06:03:14.125Z,5.97
2023-04-19T06:05:41.284Z,6.07
2023-04-19T06:08:09.607Z,5.23
2023-04-19T06:10:51.752Z,6.50
2023-04-19T06:13:21.207Z,6.17
2023-04-19T06:15:48.741Z,5.43
2023-04-19T06:18:19.563Z,5.80
2023-04-19T06:20:47.526Z,5.80
2023-04-19T06:23:15.240Z,5.63
2023-04-19T06:25:42.255Z,5.87
2023-04-19T06:28:09.110Z,6.50
2023-04-19T06:30:35.977Z,5.60
2023-04-19T06:33:02.879Z,6.87
2023-04-19T06:35:29.724Z,6.27
2023-04-19T06:37:56.514Z,4.97
2023-04-19T06:40:23.574Z,4.90
2023-04-19T06:42:50.502Z,5.50
2023-04-19T06:45:17.533Z,5.80
2023-04-19T06:47:44.617Z,5.80
2023-04-19T06:50:11.696Z,6.80
2023-04-19T06:52:39.029Z,6.10
2023-04-19T06:55:09.554Z,5.63
2023-04-19T06:57:36.494Z,6.87
2023-04-19T07:00:04.557Z,5.40
2023-04-19T07:02:31.667Z,6.80
2023-04-19T07:04:58.588Z,6.40
2023-04-19T07:07:25.404Z,6.40
2023-04-19T07:09:52.392Z,5.90
2023-04-19T07:12:19.182Z,6.03
2023-04-19T07:14:45.999Z,8.07
2023-04-19T07:17:14.060Z,5.87
2023-04-19T07:19:40.865Z,5.50
2023-04-19T07:22:07.699Z,5.93
2023-04-19T07:24:34.680Z,6.00
2023-04-19T07:27:02.075Z,6.20
2023-04-19T07:29:28.972Z,6.30
2023-04-19T07:31:55.910Z,5.80
2023-04-19T07:34:22.729Z,5.63
2023-04-19T07:36:49.583Z,7.07
2023-04-19T07:39:16.574Z,5.23
2023-04-19T07:41:45.651Z,4.70
2023-04-19T07:44:13.822Z,6.40
2023-04-19T07:46:44.977Z,5.37
2023-04-19T07:49:11.887Z,5.67
2023-04-19T07:51:38.894Z,5.97
2023-04-19T07:54:06.238Z,5.20
2023-04-19T07:56:33.898Z,7.00
2023-04-19T07:59:08.230Z,6.40
2023-04-19T08:01:37.200Z,5.40
2023-04-19T08:04:04.947Z,5.20
2023-04-19T08:06:32.665Z,6.07
2023-04-19T08:08:59.571Z,5.73
2023-04-19T08:11:26.656Z,5.33
2023-04-19T08:14:04.771Z,6.40
2023-04-19T08:19:08.645Z,5.60
2023-04-19T08:21:41.132Z,5.30
2023-04-19T08:24:08.930Z,6.20
2023-04-19T08:26:35.840Z,5.27
2023-04-19T08:29:02.752Z,4.40
2023-04-19T08:31:29.754Z,5.83
2023-04-19T08:33:57.215Z,6.17
2023-04-19T08:36:37.098Z,5.33
2023-04-19T08:39:14.738Z,5.27
2023-04-19T08:42:06.874Z,5.77
2023-04-19T08:44:45.329Z,4.83
2023-04-19T08:47:30.195Z,5.03
2023-04-19T08:50:17.272Z,5.53
2023-04-19T08:52:56.021Z,4.77
2023-04-19T08:55:29.042Z,4.80
2023-04-19T08:57:57.110Z,4.03
2023-04-19T09:00:24.272Z,5.90
2023-04-19T09:02:52.930Z,4.73
2023-04-19T09:05:21.225Z,4.90
2023-04-19T09:07:48.687Z,4.23
2023-04-19T09:10:20.243Z,4.67
2023-04-19T09:13:02.226Z,4.60
2023-04-19T09:15:40.463Z,4.70
2023-04-19T09:18:11.191Z,4.27
2023-04-19T09:20:42.802Z,5.00
2023-04-19T09:23:15.986Z,3.60
2023-04-19T09:28:26.409Z,3.80
2023-04-19T09:33:33.783Z,3.63
2023-04-19T09:36:01.535Z,3.83
2023-04-19T09:38:28.470Z,3.20
2023-04-19T09:41:09.115Z,3.93
2023-04-19T09:43:58.941Z,2.77
2023-04-19T09:46:34.475Z,3.53
2023-04-19T09:49:41.741Z,3.57
2023-04-19T09:52:14.549Z,5.07
2023-04-19T09:54:42.151Z,3.83
2023-04-19T09:57:09.076Z,2.90
2023-04-19T09:59:35.895Z,4.37
2023-04-19T10:02:05.202Z,2.70
2023-04-19T10:04:44.179Z,2.80
2023-04-19T10:09:53.599Z,2.93
2023-04-19T10:12:48.204Z,2.47
2023-04-19T10:15:12.804Z,2.63
2023-04-19T10:17:40.100Z,3.40
2023-04-19T10:20:17.650Z,3.07
2023-04-19T10:22:44.811Z,2.90
2023-04-19T10:25:14.387Z,3.00
2023-04-19T10:27:49.107Z,2.23
2023-04-19T10:30:19.831Z,2.60
2023-04-19T10:32:57.891Z,2.80
2023-04-19T10:35:33.973Z,1.63
2023-04-19T10:38:09.062Z,2.07
2023-04-19T10:41:04.074Z,1.53
2023-04-19T10:43:32.107Z,1.83
2023-04-19T10:46:22.133Z,1.70
2023-04-19T10:48:55.050Z,2.20
2023-04-19T10:51:27.962Z,2.17
2023-04-19T10:54:00.344Z,1.70
2023-04-19T10:56:33.250Z,1.33
2023-04-19T10:59:05.383Z,1.60
2023-04-19T11:01:33.881Z,1.90
2023-04-19T11:04:01.245Z,1.47
2023-04-19T11:06:28.285Z,1.83
2023-04-19T11:08:55.299Z,1.67
2023-04-19T11:11:22.102Z,2.00
2023-04-19T11:13:49.186Z,2.27
2023-04-19T11:16:18.281Z,2.40
2023-04-19T11:18:46.192Z,1.47
2023-04-19T11:21:14.832Z,1.57
2023-04-19T11:23:41.924Z,2.33
2023-04-19T11:26:14.380Z,2.33
2023-04-19T11:28:41.448Z,2.63
2023-04-19T11:31:08.488Z,2.50
2023-04-19T11:33:36.476Z,2.17
2023-04-19T11:36:03.951Z,1.50
2023-04-19T11:38:31.393Z,2.40
2023-04-19T11:41:02.837Z,1.07
2023-04-19T11:43:34.084Z,1.90
2023-04-19T11:46:11.879Z,1.60
2023-04-19T11:48:51.422Z,2.30
2023-04-19T11:51:18.290Z,2.30
2023-04-19T11:53:45.208Z,1.70
2023-04-19T11:56:12.122Z,1.80
2023-04-19T11:58:48.844Z,2.33
2023-04-19T12:01:16.671Z,2.40
2023-04-19T12:03:48.077Z,2.93
2023-04-19T12:06:18.131Z,7.70
2023-04-19T12:08:47.493Z,1.73
2023-04-19T12:11:16.101Z,2.70
2023-04-19T12:13:44.573Z,2.20
2023-04-19T12:16:12.307Z,2.20
2023-04-19T12:18:50.591Z,2.30
2023-04-19T12:21:32.225Z,2.30
2023-04-19T12:24:01.796Z,2.20
2023-04-19T12:26:29.605Z,2.13
2023-04-19T12:28:58.155Z,1.97
2023-04-19T12:31:25.328Z,3.17
2023-04-19T12:33:52.239Z,2.57
2023-04-19T12:36:19.340Z,2.70
2023-04-19T12:38:46.109Z,2.63
2023-04-19T12:41:12.945Z,2.50
2023-04-19T12:43:39.732Z,2.40
2023-04-19T12:46:06.552Z,2.50
2023-04-19T12:48:33.418Z,2.23
2023-04-19T12:51:00.568Z,2.60
2023-04-19T12:53:27.415Z,3.33
2023-04-19T12:55:54.183Z,3.07
2023-04-19T12:58:21.536Z,2.97
2023-04-19T13:00:49.263Z,3.20
2023-04-19T13:03:16.610Z,2.33
2023-04-19T13:05:43.639Z,3.40
2023-04-19T13:08:10.421Z,2.73
2023-04-19T13:10:37.217Z,2.70
2023-04-19T13:13:04.166Z,2.20
2023-04-19T13:15:31.237Z,2.77
2023-04-19T13:17:58.238Z,2.83
2023-04-19T13:20:25.064Z,2.50
2023-04-19T13:22:51.905Z,2.27
2023-04-19T13:25:18.800Z,2.70
2023-04-19T13:27:47.108Z,2.73
2023-04-19T13:30:14.278Z,2.40
2023-04-19T13:32:41.083Z,2.67
2023-04-19T13:35:08.372Z,2.60
2023-04-19T13:37:35.166Z,2.93
2023-04-19T13:40:17.484Z,2.67
2023-04-19T13:42:45.881Z,3.70
2023-04-19T13:45:12.885Z,2.90
2023-04-19T13:47:39.750Z,2.77
2023-04-19T13:50:07.261Z,2.60
2023-04-19T13:52:34.072Z,3.10
2023-04-19T13:55:00.946Z,2.60
2023-04-19T13:57:27.764Z,2.20
2023-04-19T13:59:54.550Z,2.70
2023-04-19T14:02:21.715Z,2.77
2023-04-19T14:04:48.642Z,3.00
2023-04-19T14:07:15.434Z,3.17
2023-04-19T14:09:42.566Z,2.87
2023-04-19T14:12:09.704Z,3.23
2023-04-19T14:14:36.522Z,2.77
2023-04-19T14:17:03.470Z,3.10
2023-04-19T14:19:30.295Z,2.93
2023-04-19T14:21:57.159Z,2.93
2023-04-19T14:24:24.083Z,2.87
2023-04-19T14:27:07.038Z,3.03
2023-04-19T14:29:36.958Z,2.63
2023-04-19T14:32:20.799Z,3.53
2023-04-19T14:34:51.702Z,3.80
2023-04-19T14:37:19.169Z,2.70
2023-04-19T14:39:47.620Z,3.40
2023-04-19T14:42:14.476Z,3.57
2023-04-19T14:44:41.618Z,3.10
2023-04-19T14:47:08.517Z,3.00
2023-04-19T14:49:35.376Z,3.80
2023-04-19T14:52:03.992Z,3.50
2023-04-19T14:54:30.993Z,3.30
2023-04-19T14:56:57.792Z,3.03
2023-04-19T14:59:24.857Z,23.67
2023-04-19T15:01:52.006Z,3.13
2023-04-19T15:04:19.165Z,2.93
2023-04-19T15:06:46.319Z,3.27
2023-04-19T15:09:13.328Z,3.20
2023-04-19T15:11:40.157Z,2.63
2023-04-19T15:14:07.030Z,3.07
2023-04-19T15:16:33.944Z,3.27
2023-04-19T15:19:02.251Z,2.60
2023-04-19T15:21:29.345Z,3.07
2023-04-19T15:23:56.116Z,2.80
2023-04-19T15:26:24.441Z,3.80
2023-04-19T15:28:51.975Z,3.20
2023-04-19T15:31:18.827Z,3.30
2023-04-19T15:33:46.070Z,3.07
2023-04-19T15:36:13.079Z,3.10
2023-04-19T15:38:40.428Z,3.37
2023-04-19T15:41:08.225Z,3.17
2023-04-19T15:43:35.112Z,3.20
2023-04-19T15:46:01.980Z,3.93
2023-04-19T15:48:28.958Z,3.53
2023-04-19T15:50:55.886Z,3.30
2023-04-19T15:53:22.678Z,3.90
2023-04-19T15:55:49.544Z,3.00
2023-04-19T15:58:16.619Z,3.10
2023-04-19T16:00:43.530Z,2.87
2023-04-19T16:03:12.668Z,3.00
2023-04-19T16:05:40.266Z,2.50
2023-04-19T16:08:19.288Z,3.23
2023-04-19T16:10:47.010Z,3.27
2023-04-19T16:13:15.064Z,3.07
2023-04-19T16:15:42.825Z,2.37
2023-04-19T16:18:10.609Z,3.07
2023-04-19T16:20:38.198Z,2.23
2023-04-19T16:23:05.085Z,2.67
2023-04-19T16:25:33.664Z,2.97
2023-04-19T16:28:01.398Z,2.67
2023-04-19T16:30:28.618Z,2.00
2023-04-19T16:32:56.385Z,2.10
2023-04-19T16:35:24.406Z,2.27
2023-04-19T16:37:51.463Z,2.40
2023-04-19T16:40:18.468Z,2.50
2023-04-19T16:42:45.252Z,2.70
2023-04-19T16:45:12.122Z,3.07
2023-04-19T16:47:39.085Z,1.70
2023-04-19T16:50:06.627Z,2.37
2023-04-19T16:52:35.558Z,2.30
2023-04-19T16:55:04.392Z,2.00
2023-04-19T16:57:32.803Z,1.80
2023-04-19T16:59:59.660Z,2.53
2023-04-19T17:02:26.744Z,2.20
2023-04-19T17:04:53.948Z,2.30
2023-04-19T17:07:20.757Z,1.97
2023-04-19T17:09:47.670Z,1.90
2023-04-19T17:12:14.456Z,1.60
2023-04-19T17:14:41.269Z,1.90
2023-04-19T17:17:08.182Z,1.83
2023-04-19T17:19:35.150Z,1.67
2023-04-19T17:22:05.709Z,1.70
2023-04-19T17:24:33.737Z,2.10
2023-04-19T17:27:01.365Z,1.57
2023-04-19T17:29:28.375Z,1.57
2023-04-19T17:31:56.273Z,1.50
2023-04-19T17:34:23.306Z,1.33
2023-04-19T17:36:50.158Z,1.50
2023-04-19T17:39:17.198Z,2.20
2023-04-19T17:41:44.969Z,1.60
2023-04-19T17:44:12.682Z,1.70
2023-04-19T17:46:40.544Z,1.70
2023-04-19T17:49:08.143Z,1.80
2023-04-19T17:51:34.955Z,2.03
2023-04-19T17:54:01.768Z,1.80
2023-04-19T17:56:28.766Z,2.50
2023-04-19T17:58:55.651Z,1.93
2023-04-19T18:01:22.551Z,1.80
2023-04-19T18:03:49.481Z,1.90
2023-04-19T18:06:16.588Z,2.60
2023-04-19T18:08:44.139Z,1.67
2023-04-19T18:11:11.256Z,2.20
2023-04-19T18:13:38.217Z,1.83
2023-04-19T18:16:05.590Z,1.87
2023-04-19T18:18:32.588Z,1.67
2023-04-19T18:21:00.025Z,1.93
2023-04-19T18:23:26.920Z,1.87
2023-04-19T18:25:54.672Z,1.67
2023-04-19T18:28:21.811Z,2.30
2023-04-19T18:30:48.646Z,2.30
2023-04-19T18:33:15.527Z,2.10
2023-04-19T18:35:42.397Z,2.10
2023-04-19T18:38:09.866Z,1.93
2023-04-19T18:40:36.683Z,2.70
2023-04-19T18:43:03.549Z,2.17
2023-04-19T18:45:31.564Z,1.50
2023-04-19T18:48:01.519Z,2.27
2023-04-19T18:50:28.354Z,4.43
2023-04-19T18:52:55.397Z,2.30
2023-04-19T18:55:22.269Z,2.10
2023-04-19T18:57:49.113Z,2.17
2023-04-19T19:00:16.698Z,2.53
2023-04-19T19:02:44.638Z,2.57
2023-04-19T19:05:13.669Z,2.17
2023-04-19T19:07:41.961Z,2.93
2023-04-19T19:10:19.434Z,2.23
2023-04-19T19:12:48.839Z,1.90
2023-04-19T19:15:16.067Z,2.30
2023-04-19T19:17:43.454Z,2.67
2023-04-19T19:20:11.000Z,2.27
2023-04-19T19:22:37.965Z,2.67
2023-04-19T19:25:05.523Z,1.97
2023-04-19T19:27:32.351Z,2.87
2023-04-19T19:29:59.189Z,2.17
2023-04-19T19:32:26.141Z,2.37
2023-04-19T19:35:00.169Z,2.57
2023-04-19T19:37:28.772Z,2.43
2023-04-19T19:39:56.723Z,2.23
2023-04-19T19:42:24.108Z,3.63
2023-04-19T19:44:56.979Z,2.10
2023-04-19T19:47:27.777Z,2.90
2023-04-19T19:50:39.123Z,2.53
2023-04-19T19:52:42.083Z,2.50
2023-04-19T19:55:12.444Z,2.10
2023-04-19T20:02:54.058Z,2.93
2023-04-19T20:05:24.083Z,2.50
2023-04-19T20:10:21.020Z,2.60
2023-04-19T20:12:47.988Z,2.80
2023-04-19T20:15:14.997Z,3.37
2023-04-19T20:17:42.064Z,2.60
2023-04-19T20:20:11.305Z,2.77
2023-04-19T20:22:38.697Z,2.80
2023-04-19T20:25:05.944Z,2.50
2023-04-19T20:27:33.586Z,3.20
2023-04-19T20:30:01.060Z,3.57
2023-04-19T20:32:28.001Z,2.53
2023-04-19T20:34:54.864Z,3.43
2023-04-19T20:37:22.625Z,2.70
2023-04-19T20:39:49.482Z,3.03
2023-04-19T20:42:16.278Z,3.03
2023-04-19T20:44:43.127Z,2.70
2023-04-19T20:47:10.536Z,2.80
2023-04-19T20:49:37.383Z,3.10
2023-04-19T20:52:04.235Z,2.40
2023-04-19T20:54:31.369Z,3.10
2023-04-19T20:57:04.915Z,2.90
2023-04-19T20:59:31.935Z,3.23
2023-04-19T21:01:59.689Z,2.53
2023-04-19T21:04:26.889Z,1.90
2023-04-19T21:06:53.796Z,3.00
2023-04-19T21:09:20.900Z,2.70
2023-04-19T21:11:47.872Z,3.33
2023-04-19T21:14:14.740Z,2.77
2023-04-19T21:16:41.893Z,3.37
2023-04-19T21:19:08.722Z,2.70
2023-04-19T21:21:35.586Z,3.10
2023-04-19T21:24:02.403Z,3.20
2023-04-19T21:26:29.169Z,3.13
2023-04-19T21:28:56.098Z,3.40
2023-04-19T21:31:22.937Z,2.73
2023-04-19T21:33:49.754Z,3.10
2023-04-19T21:36:16.539Z,2.77
2023-04-19T21:38:43.361Z,2.83
2023-04-19T21:41:10.982Z,3.57
2023-04-19T21:43:37.790Z,2.77
2023-04-19T21:46:05.372Z,3.07
2023-04-19T21:48:32.625Z,3.13
2023-04-19T21:51:01.136Z,2.83
2023-04-19T21:53:27.955Z,2.60
2023-04-19T21:55:54.736Z,3.10
2023-04-19T21:58:21.627Z,3.30
2023-04-19T22:00:48.634Z,3.00
2023-04-19T22:03:15.851Z,2.60
2023-04-19T22:05:43.314Z,2.77
2023-04-19T22:08:10.661Z,3.07
2023-04-19T22:10:37.843Z,2.80
2023-04-19T22:13:04.969Z,2.80
2023-04-19T22:15:32.208Z,2.50
2023-04-19T22:17:59.156Z,3.87
2023-04-19T22:20:26.981Z,3.03
2023-04-19T22:22:53.800Z,3.20
2023-04-19T22:25:20.726Z,2.40
2023-04-19T22:27:48.989Z,3.10
2023-04-19T22:30:16.536Z,3.40
2023-04-19T22:32:43.399Z,3.10
2023-04-19T22:35:10.448Z,3.50
2023-04-19T22:37:37.345Z,2.70
2023-04-19T22:40:06.797Z,2.63
2023-04-19T22:42:33.676Z,2.60
2023-04-19T22:45:00.472Z,2.67
2023-04-19T22:47:27.435Z,2.50
2023-04-19T22:49:54.680Z,2.90
2023-04-19T22:52:21.456Z,2.73
2023-04-19T22:54:48.243Z,2.73
2023-04-19T22:57:15.080Z,3.60
2023-04-19T22:59:41.878Z,3.00
2023-04-19T23:02:08.936Z,2.70
2023-04-19T23:04:35.946Z,2.77
2023-04-19T23:07:04.080Z,2.60
2023-04-19T23:09:31.003Z,3.47
2023-04-19T23:12:00.932Z,3.20
2023-04-19T23:14:28.502Z,2.63
2023-04-19T23:16:55.883Z,3.30
2023-04-19T23:19:22.940Z,2.73
2023-04-19T23:21:52.532Z,2.80
2023-04-19T23:24:19.649Z,3.03
2023-04-19T23:26:46.502Z,3.13
2023-04-19T23:29:13.346Z,3.50
2023-04-19T23:31:40.235Z,2.60
2023-04-19T23:34:07.068Z,2.80
2023-04-19T23:36:36.802Z,3.23
2023-04-19T23:39:05.119Z,2.80
2023-04-19T23:41:31.978Z,2.70
2023-04-19T23:43:58.795Z,2.50
2023-04-19T23:46:25.670Z,2.37
2023-04-19T23:48:52.627Z,3.10
2023-04-19T23:51:19.681Z,2.97
2023-04-19T23:53:46.530Z,2.93
2023-04-19T23:56:13.339Z,3.30
2023-04-19T23:58:40.193Z,3.23
